sensor_id;sensor_type;location;lat;lon;timestamp;P1;durP1;ratioP1;P2;durP2;ratioP2
14118;SDS011;7138;49.246;9.100;2022-09-28T00:01:18;2.70;;;0.85;;
14118;SDS011;7138;49.246;9.100;2022-09-28T00:03:46;2.95;;;0.80;;
14118;SDS011;7138;49.246;9.100;2022-09-28T00:06:16;2.50;;;0.77;;
14118;SDS011;7138;49.246;9.100;2022-09-28T00:08:44;4.03;;;0.82;;
14118;SDS011;7138;49.246;9.100;2022-09-28T00:11:12;3.85;;;0.70;;
14118;SDS011;7138;49.246;9.100;2022-09-28T00:13:39;5.88;;;1.00;;
14118;SDS011;7138;49.246;9.100;2022-09-28T00:16:09;3.95;;;0.77;;
14118;SDS011;7138;49.246;9.100;2022-09-28T00:18:38;2.53;;;0.60;;
14118;SDS011;7138;49.246;9.100;2022-09-28T00:21:05;1.70;;;0.60;;
14118;SDS011;7138;49.246;9.100;2022-09-28T00:23:34;2.08;;;0.68;;
14118;SDS011;7138;49.246;9.100;2022-09-28T00:26:24;3.00;;;0.63;;
14118;SDS011;7138;49.246;9.100;2022-09-28T00:28:51;2.15;;;0.80;;
14118;SDS011;7138;49.246;9.100;2022-09-28T00:31:18;3.00;;;0.70;;
14118;SDS011;7138;49.246;9.100;2022-09-28T00:33:48;2.70;;;0.55;;
14118;SDS011;7138;49.246;9.100;2022-09-28T00:36:14;4.13;;;0.70;;
14118;SDS011;7138;49.246;9.100;2022-09-28T00:38:40;1.88;;;0.70;;
14118;SDS011;7138;49.246;9.100;2022-09-28T00:41:07;2.20;;;0.70;;
14118;SDS011;7138;49.246;9.100;2022-09-28T00:43:35;3.33;;;0.70;;
14118;SDS011;7138;49.246;9.100;2022-09-28T00:46:01;1.92;;;0.60;;
14118;SDS011;7138;49.246;9.100;2022-09-28T00:48:35;3.63;;;0.60;;
14118;SDS011;7138;49.246;9.100;2022-09-28T00:51:09;1.83;;;0.60;;
14118;SDS011;7138;49.246;9.100;2022-09-28T00:53:37;2.78;;;0.68;;
14118;SDS011;7138;49.246;9.100;2022-09-28T00:56:08;2.30;;;0.68;;
14118;SDS011;7138;49.246;9.100;2022-09-28T00:58:39;3.08;;;0.75;;
14118;SDS011;7138;49.246;9.100;2022-09-28T01:01:09;2.90;;;0.60;;
14118;SDS011;7138;49.246;9.100;2022-09-28T01:03:38;4.00;;;0.80;;
14118;SDS011;7138;49.246;9.100;2022-09-28T01:06:14;3.00;;;0.70;;
14118;SDS011;7138;49.246;9.100;2022-09-28T01:08:44;4.25;;;0.80;;
14118;SDS011;7138;49.246;9.100;2022-09-28T01:11:15;3.70;;;0.70;;
14118;SDS011;7138;49.246;9.100;2022-09-28T01:13:41;3.65;;;0.88;;
14118;SDS011;7138;49.246;9.100;2022-09-28T01:16:11;3.63;;;0.52;;
14118;SDS011;7138;49.246;9.100;2022-09-28T01:18:51;4.53;;;0.55;;
14118;SDS011;7138;49.246;9.100;2022-09-28T01:21:34;6.05;;;0.75;;
14118;SDS011;7138;49.246;9.100;2022-09-28T01:24:17;3.53;;;0.77;;
14118;SDS011;7138;49.246;9.100;2022-09-28T01:27:09;2.20;;;0.80;;
14118;SDS011;7138;49.246;9.100;2022-09-28T01:29:50;3.90;;;0.80;;
14118;SDS011;7138;49.246;9.100;2022-09-28T01:32:31;3.20;;;0.90;;
14118;SDS011;7138;49.246;9.100;2022-09-28T01:35:10;1.88;;;0.70;;
14118;SDS011;7138;49.246;9.100;2022-09-28T01:37:44;4.35;;;0.60;;
14118;SDS011;7138;49.246;9.100;2022-09-28T01:40:16;3.72;;;0.77;;
14118;SDS011;7138;49.246;9.100;2022-09-28T01:42:47;2.47;;;0.70;;
14118;SDS011;7138;49.246;9.100;2022-09-28T01:45:19;2.00;;;0.60;;
14118;SDS011;7138;49.246;9.100;2022-09-28T01:47:53;4.97;;;0.82;;
14118;SDS011;7138;49.246;9.100;2022-09-28T01:50:26;3.17;;;0.70;;
14118;SDS011;7138;49.246;9.100;2022-09-28T01:53:00;2.17;;;0.60;;
14118;SDS011;7138;49.246;9.100;2022-09-28T01:55:36;5.93;;;1.15;;
14118;SDS011;7138;49.246;9.100;2022-09-28T01:58:09;3.00;;;0.77;;
14118;SDS011;7138;49.246;9.100;2022-09-28T02:00:44;2.17;;;0.60;;
14118;SDS011;7138;49.246;9.100;2022-09-28T02:03:21;3.17;;;0.80;;
14118;SDS011;7138;49.246;9.100;2022-09-28T02:05:57;3.03;;;0.70;;
14118;SDS011;7138;49.246;9.100;2022-09-28T02:08:30;2.13;;;0.68;;
14118;SDS011;7138;49.246;9.100;2022-09-28T02:11:02;5.05;;;0.70;;
14118;SDS011;7138;49.246;9.100;2022-09-28T02:13:39;3.65;;;0.65;;
14118;SDS011;7138;49.246;9.100;2022-09-28T02:16:10;3.22;;;0.50;;
14118;SDS011;7138;49.246;9.100;2022-09-28T02:18:44;3.63;;;0.70;;
14118;SDS011;7138;49.246;9.100;2022-09-28T02:21:12;5.05;;;1.00;;
14118;SDS011;7138;49.246;9.100;2022-09-28T02:23:48;5.03;;;1.67;;
14118;SDS011;7138;49.246;9.100;2022-09-28T02:26:21;3.47;;;1.05;;
14118;SDS011;7138;49.246;9.100;2022-09-28T02:28:55;2.92;;;0.88;;
14118;SDS011;7138;49.246;9.100;2022-09-28T02:31:22;4.78;;;1.00;;
14118;SDS011;7138;49.246;9.100;2022-09-28T02:33:49;3.85;;;0.90;;
14118;SDS011;7138;49.246;9.100;2022-09-28T02:36:17;3.17;;;1.00;;
14118;SDS011;7138;49.246;9.100;2022-09-28T02:38:43;4.30;;;1.00;;
14118;SDS011;7138;49.246;9.100;2022-09-28T02:41:12;5.78;;;0.95;;
14118;SDS011;7138;49.246;9.100;2022-09-28T02:43:58;5.60;;;0.93;;
14118;SDS011;7138;49.246;9.100;2022-09-28T02:46:44;3.63;;;0.90;;
14118;SDS011;7138;49.246;9.100;2022-09-28T02:49:22;4.47;;;0.95;;
14118;SDS011;7138;49.246;9.100;2022-09-28T02:52:03;4.05;;;1.17;;
14118;SDS011;7138;49.246;9.100;2022-09-28T02:54:54;5.40;;;1.20;;
14118;SDS011;7138;49.246;9.100;2022-09-28T02:57:40;3.63;;;0.90;;
14118;SDS011;7138;49.246;9.100;2022-09-28T03:00:43;2.67;;;0.98;;
14118;SDS011;7138;49.246;9.100;2022-09-28T03:03:21;2.58;;;0.90;;
14118;SDS011;7138;49.246;9.100;2022-09-28T03:05:56;2.65;;;0.80;;
14118;SDS011;7138;49.246;9.100;2022-09-28T03:08:32;4.22;;;0.85;;
14118;SDS011;7138;49.246;9.100;2022-09-28T03:11:04;5.50;;;1.20;;
14118;SDS011;7138;49.246;9.100;2022-09-28T03:13:37;4.95;;;0.90;;
14118;SDS011;7138;49.246;9.100;2022-09-28T03:16:09;4.68;;;0.82;;
14118;SDS011;7138;49.246;9.100;2022-09-28T03:18:37;2.70;;;0.60;;
14118;SDS011;7138;49.246;9.100;2022-09-28T03:21:04;4.65;;;0.95;;
14118;SDS011;7138;49.246;9.100;2022-09-28T03:23:30;4.50;;;0.80;;
14118;SDS011;7138;49.246;9.100;2022-09-28T03:25:56;4.10;;;0.90;;
14118;SDS011;7138;49.246;9.100;2022-09-28T03:28:22;3.60;;;0.90;;
14118;SDS011;7138;49.246;9.100;2022-09-28T03:30:48;3.90;;;1.20;;
14118;SDS011;7138;49.246;9.100;2022-09-28T03:33:16;4.20;;;0.85;;
14118;SDS011;7138;49.246;9.100;2022-09-28T03:35:44;3.67;;;1.10;;
14118;SDS011;7138;49.246;9.100;2022-09-28T03:38:12;2.80;;;0.90;;
14118;SDS011;7138;49.246;9.100;2022-09-28T03:40:37;6.13;;;1.00;;
14118;SDS011;7138;49.246;9.100;2022-09-28T03:43:04;4.22;;;1.00;;
14118;SDS011;7138;49.246;9.100;2022-09-28T03:45:30;5.43;;;0.90;;
14118;SDS011;7138;49.246;9.100;2022-09-28T03:47:55;3.72;;;0.80;;
14118;SDS011;7138;49.246;9.100;2022-09-28T03:50:23;2.67;;;0.90;;
14118;SDS011;7138;49.246;9.100;2022-09-28T03:52:48;3.92;;;0.90;;
14118;SDS011;7138;49.246;9.100;2022-09-28T03:55:14;3.78;;;1.63;;
14118;SDS011;7138;49.246;9.100;2022-09-28T03:57:40;5.00;;;1.00;;
14118;SDS011;7138;49.246;9.100;2022-09-28T04:00:07;7.72;;;1.20;;
14118;SDS011;7138;49.246;9.100;2022-09-28T04:02:34;3.35;;;0.73;;
14118;SDS011;7138;49.246;9.100;2022-09-28T04:05:00;3.42;;;0.90;;
14118;SDS011;7138;49.246;9.100;2022-09-28T04:07:27;3.63;;;0.95;;
14118;SDS011;7138;49.246;9.100;2022-09-28T04:09:53;5.93;;;1.45;;
14118;SDS011;7138;49.246;9.100;2022-09-28T04:12:19;5.20;;;1.17;;
14118;SDS011;7138;49.246;9.100;2022-09-28T04:14:45;5.20;;;1.00;;
14118;SDS011;7138;49.246;9.100;2022-09-28T04:17:10;3.53;;;0.80;;
14118;SDS011;7138;49.246;9.100;2022-09-28T04:19:36;4.03;;;1.15;;
14118;SDS011;7138;49.246;9.100;2022-09-28T04:22:02;6.10;;;1.10;;
14118;SDS011;7138;49.246;9.100;2022-09-28T04:24:30;4.75;;;1.00;;
14118;SDS011;7138;49.246;9.100;2022-09-28T04:26:56;4.32;;;1.30;;
14118;SDS011;7138;49.246;9.100;2022-09-28T04:29:41;4.28;;;1.10;;
14118;SDS011;7138;49.246;9.100;2022-09-28T04:32:08;5.28;;;1.02;;
14118;SDS011;7138;49.246;9.100;2022-09-28T04:34:34;5.28;;;1.17;;
14118;SDS011;7138;49.246;9.100;2022-09-28T04:37:00;4.22;;;1.00;;
14118;SDS011;7138;49.246;9.100;2022-09-28T04:39:26;3.97;;;0.98;;
14118;SDS011;7138;49.246;9.100;2022-09-28T04:41:53;3.78;;;1.15;;
14118;SDS011;7138;49.246;9.100;2022-09-28T04:44:19;4.78;;;0.98;;
14118;SDS011;7138;49.246;9.100;2022-09-28T04:46:45;5.57;;;1.25;;
14118;SDS011;7138;49.246;9.100;2022-09-28T04:49:11;4.25;;;1.00;;
14118;SDS011;7138;49.246;9.100;2022-09-28T04:51:40;4.93;;;1.10;;
14118;SDS011;7138;49.246;9.100;2022-09-28T04:54:06;5.32;;;1.20;;
14118;SDS011;7138;49.246;9.100;2022-09-28T04:56:32;5.05;;;1.20;;
14118;SDS011;7138;49.246;9.100;2022-09-28T04:58:59;5.15;;;1.20;;
14118;SDS011;7138;49.246;9.100;2022-09-28T05:01:25;5.97;;;1.95;;
14118;SDS011;7138;49.246;9.100;2022-09-28T05:03:51;4.55;;;1.25;;
14118;SDS011;7138;49.246;9.100;2022-09-28T05:06:17;4.20;;;1.00;;
14118;SDS011;7138;49.246;9.100;2022-09-28T05:08:43;6.35;;;1.25;;
14118;SDS011;7138;49.246;9.100;2022-09-28T05:11:11;4.75;;;1.40;;
14118;SDS011;7138;49.246;9.100;2022-09-28T05:13:39;5.32;;;1.35;;
14118;SDS011;7138;49.246;9.100;2022-09-28T05:16:08;7.45;;;1.63;;
14118;SDS011;7138;49.246;9.100;2022-09-28T05:18:36;4.47;;;1.80;;
14118;SDS011;7138;49.246;9.100;2022-09-28T05:21:02;3.75;;;1.50;;
14118;SDS011;7138;49.246;9.100;2022-09-28T05:23:28;6.97;;;1.77;;
14118;SDS011;7138;49.246;9.100;2022-09-28T05:25:54;7.70;;;2.08;;
14118;SDS011;7138;49.246;9.100;2022-09-28T05:28:22;5.50;;;2.40;;
14118;SDS011;7138;49.246;9.100;2022-09-28T05:30:51;4.32;;;1.85;;
14118;SDS011;7138;49.246;9.100;2022-09-28T05:33:23;6.13;;;1.92;;
14118;SDS011;7138;49.246;9.100;2022-09-28T05:35:48;6.30;;;1.98;;
14118;SDS011;7138;49.246;9.100;2022-09-28T05:38:14;7.53;;;2.00;;
14118;SDS011;7138;49.246;9.100;2022-09-28T05:40:40;7.60;;;2.40;;
14118;SDS011;7138;49.246;9.100;2022-09-28T05:43:06;10.57;;;2.38;;
14118;SDS011;7138;49.246;9.100;2022-09-28T05:45:32;5.75;;;2.50;;
14118;SDS011;7138;49.246;9.100;2022-09-28T05:47:57;7.78;;;2.10;;
14118;SDS011;7138;49.246;9.100;2022-09-28T05:50:25;5.78;;;2.17;;
14118;SDS011;7138;49.246;9.100;2022-09-28T05:52:57;9.73;;;2.28;;
14118;SDS011;7138;49.246;9.100;2022-09-28T05:55:25;7.72;;;2.10;;
14118;SDS011;7138;49.246;9.100;2022-09-28T05:57:51;7.95;;;1.85;;
14118;SDS011;7138;49.246;9.100;2022-09-28T06:00:17;5.43;;;2.08;;
14118;SDS011;7138;49.246;9.100;2022-09-28T06:02:43;6.47;;;2.22;;
14118;SDS011;7138;49.246;9.100;2022-09-28T06:05:20;6.78;;;2.05;;
14118;SDS011;7138;49.246;9.100;2022-09-28T06:07:47;6.55;;;2.05;;
14118;SDS011;7138;49.246;9.100;2022-09-28T06:10:12;5.40;;;2.30;;
14118;SDS011;7138;49.246;9.100;2022-09-28T06:12:38;6.35;;;2.33;;
14118;SDS011;7138;49.246;9.100;2022-09-28T06:15:05;6.63;;;2.35;;
14118;SDS011;7138;49.246;9.100;2022-09-28T06:17:32;5.90;;;2.38;;
14118;SDS011;7138;49.246;9.100;2022-09-28T06:19:58;5.05;;;2.17;;
14118;SDS011;7138;49.246;9.100;2022-09-28T06:22:24;8.68;;;2.85;;
14118;SDS011;7138;49.246;9.100;2022-09-28T06:24:51;6.40;;;2.22;;
14118;SDS011;7138;49.246;9.100;2022-09-28T06:27:17;7.57;;;2.20;;
14118;SDS011;7138;49.246;9.100;2022-09-28T06:29:43;8.70;;;2.38;;
14118;SDS011;7138;49.246;9.100;2022-09-28T06:32:10;6.38;;;2.35;;
14118;SDS011;7138;49.246;9.100;2022-09-28T06:34:37;4.57;;;2.35;;
14118;SDS011;7138;49.246;9.100;2022-09-28T06:37:06;11.77;;;2.47;;
14118;SDS011;7138;49.246;9.100;2022-09-28T06:39:31;6.25;;;2.78;;
14118;SDS011;7138;49.246;9.100;2022-09-28T06:41:58;6.13;;;2.15;;
14118;SDS011;7138;49.246;9.100;2022-09-28T06:44:27;5.32;;;2.10;;
14118;SDS011;7138;49.246;9.100;2022-09-28T06:46:53;6.85;;;2.55;;
14118;SDS011;7138;49.246;9.100;2022-09-28T06:49:20;6.78;;;2.45;;
14118;SDS011;7138;49.246;9.100;2022-09-28T06:51:46;8.98;;;2.30;;
14118;SDS011;7138;49.246;9.100;2022-09-28T06:54:12;4.75;;;2.22;;
14118;SDS011;7138;49.246;9.100;2022-09-28T06:56:38;7.60;;;2.40;;
14118;SDS011;7138;49.246;9.100;2022-09-28T06:59:05;7.18;;;2.42;;
14118;SDS011;7138;49.246;9.100;2022-09-28T07:01:31;9.13;;;2.38;;
14118;SDS011;7138;49.246;9.100;2022-09-28T07:03:57;6.35;;;2.15;;
14118;SDS011;7138;49.246;9.100;2022-09-28T07:06:25;8.02;;;2.40;;
14118;SDS011;7138;49.246;9.100;2022-09-28T07:08:53;6.63;;;2.60;;
14118;SDS011;7138;49.246;9.100;2022-09-28T07:11:19;5.78;;;2.55;;
14118;SDS011;7138;49.246;9.100;2022-09-28T07:13:45;7.38;;;3.08;;
14118;SDS011;7138;49.246;9.100;2022-09-28T07:16:12;6.03;;;2.55;;
14118;SDS011;7138;49.246;9.100;2022-09-28T07:18:38;7.75;;;2.50;;
14118;SDS011;7138;49.246;9.100;2022-09-28T07:21:04;4.53;;;2.00;;
14118;SDS011;7138;49.246;9.100;2022-09-28T07:23:31;7.35;;;2.42;;
14118;SDS011;7138;49.246;9.100;2022-09-28T07:25:57;4.78;;;2.00;;
14118;SDS011;7138;49.246;9.100;2022-09-28T07:28:28;6.93;;;2.30;;
14118;SDS011;7138;49.246;9.100;2022-09-28T07:30:55;7.57;;;2.33;;
14118;SDS011;7138;49.246;9.100;2022-09-28T07:33:22;62.67;;;4.15;;
14118;SDS011;7138;49.246;9.100;2022-09-28T07:35:56;9.10;;;2.40;;
14118;SDS011;7138;49.246;9.100;2022-09-28T07:38:22;7.43;;;2.08;;
14118;SDS011;7138;49.246;9.100;2022-09-28T07:40:50;5.00;;;1.90;;
14118;SDS011;7138;49.246;9.100;2022-09-28T07:43:34;5.18;;;1.67;;
14118;SDS011;7138;49.246;9.100;2022-09-28T07:46:00;4.65;;;1.75;;
14118;SDS011;7138;49.246;9.100;2022-09-28T07:48:27;5.85;;;1.70;;
14118;SDS011;7138;49.246;9.100;2022-09-28T07:51:01;5.72;;;1.40;;
14118;SDS011;7138;49.246;9.100;2022-09-28T07:53:28;7.30;;;2.45;;
14118;SDS011;7138;49.246;9.100;2022-09-28T07:55:55;12.48;;;3.15;;
14118;SDS011;7138;49.246;9.100;2022-09-28T07:58:28;6.38;;;1.58;;
14118;SDS011;7138;49.246;9.100;2022-09-28T08:00:56;5.68;;;1.65;;
14118;SDS011;7138;49.246;9.100;2022-09-28T08:03:24;7.53;;;1.60;;
14118;SDS011;7138;49.246;9.100;2022-09-28T08:05:55;5.85;;;1.40;;
14118;SDS011;7138;49.246;9.100;2022-09-28T08:08:22;6.05;;;1.85;;
14118;SDS011;7138;49.246;9.100;2022-09-28T08:10:48;5.32;;;1.50;;
14118;SDS011;7138;49.246;9.100;2022-09-28T08:13:17;5.25;;;1.50;;
14118;SDS011;7138;49.246;9.100;2022-09-28T08:15:44;4.90;;;1.58;;
14118;SDS011;7138;49.246;9.100;2022-09-28T08:18:12;4.47;;;1.48;;
14118;SDS011;7138;49.246;9.100;2022-09-28T08:20:38;5.95;;;1.80;;
14118;SDS011;7138;49.246;9.100;2022-09-28T08:23:24;5.80;;;1.80;;
14118;SDS011;7138;49.246;9.100;2022-09-28T08:25:50;6.13;;;1.65;;
14118;SDS011;7138;49.246;9.100;2022-09-28T08:28:18;4.55;;;1.60;;
14118;SDS011;7138;49.246;9.100;2022-09-28T08:30:46;6.57;;;1.48;;
14118;SDS011;7138;49.246;9.100;2022-09-28T08:33:13;3.33;;;1.20;;
14118;SDS011;7138;49.246;9.100;2022-09-28T08:35:45;6.47;;;1.80;;
14118;SDS011;7138;49.246;9.100;2022-09-28T08:38:12;4.90;;;1.40;;
14118;SDS011;7138;49.246;9.100;2022-09-28T08:40:41;5.60;;;1.80;;
14118;SDS011;7138;49.246;9.100;2022-09-28T08:43:38;5.60;;;1.55;;
14118;SDS011;7138;49.246;9.100;2022-09-28T08:46:19;5.93;;;1.50;;
14118;SDS011;7138;49.246;9.100;2022-09-28T08:48:53;4.32;;;1.45;;
14118;SDS011;7138;49.246;9.100;2022-09-28T08:51:26;7.20;;;1.25;;
14118;SDS011;7138;49.246;9.100;2022-09-28T08:53:59;4.30;;;1.08;;
14118;SDS011;7138;49.246;9.100;2022-09-28T08:56:36;2.95;;;1.10;;
14118;SDS011;7138;49.246;9.100;2022-09-28T08:59:08;6.53;;;1.10;;
14118;SDS011;7138;49.246;9.100;2022-09-28T09:01:40;3.80;;;1.20;;
14118;SDS011;7138;49.246;9.100;2022-09-28T09:04:12;4.25;;;1.08;;
14118;SDS011;7138;49.246;9.100;2022-09-28T09:06:43;7.45;;;1.65;;
14118;SDS011;7138;49.246;9.100;2022-09-28T09:09:37;5.00;;;1.20;;
14118;SDS011;7138;49.246;9.100;2022-09-28T09:12:20;4.72;;;1.30;;
14118;SDS011;7138;49.246;9.100;2022-09-28T09:15:12;4.00;;;1.10;;
14118;SDS011;7138;49.246;9.100;2022-09-28T09:17:52;6.95;;;1.25;;
14118;SDS011;7138;49.246;9.100;2022-09-28T09:20:38;5.30;;;1.80;;
14118;SDS011;7138;49.246;9.100;2022-09-28T09:23:15;5.00;;;1.50;;
14118;SDS011;7138;49.246;9.100;2022-09-28T09:25:47;6.60;;;1.73;;
14118;SDS011;7138;49.246;9.100;2022-09-28T09:31:28;5.28;;;1.45;;
14118;SDS011;7138;49.246;9.100;2022-09-28T09:37:10;6.28;;;1.63;;
14118;SDS011;7138;49.246;9.100;2022-09-28T09:39:58;3.60;;;0.95;;
14118;SDS011;7138;49.246;9.100;2022-09-28T09:42:52;3.22;;;1.13;;
14118;SDS011;7138;49.246;9.100;2022-09-28T09:45:38;3.95;;;1.05;;
14118;SDS011;7138;49.246;9.100;2022-09-28T09:48:24;5.53;;;1.45;;
14118;SDS011;7138;49.246;9.100;2022-09-28T09:50:59;4.32;;;1.30;;
14118;SDS011;7138;49.246;9.100;2022-09-28T09:53:37;3.63;;;1.20;;
14118;SDS011;7138;49.246;9.100;2022-09-28T09:56:14;6.88;;;1.75;;
14118;SDS011;7138;49.246;9.100;2022-09-28T09:58:47;4.35;;;1.95;;
14118;SDS011;7138;49.246;9.100;2022-09-28T10:01:25;5.05;;;1.25;;
14118;SDS011;7138;49.246;9.100;2022-09-28T10:03:59;4.22;;;1.27;;
14118;SDS011;7138;49.246;9.100;2022-09-28T10:06:30;11.55;;;2.40;;
14118;SDS011;7138;49.246;9.100;2022-09-28T10:09:00;4.95;;;2.00;;
14118;SDS011;7138;49.246;9.100;2022-09-28T10:11:34;4.18;;;1.17;;
14118;SDS011;7138;49.246;9.100;2022-09-28T10:14:07;3.78;;;1.25;;
14118;SDS011;7138;49.246;9.100;2022-09-28T10:16:41;4.72;;;1.17;;
14118;SDS011;7138;49.246;9.100;2022-09-28T10:19:09;3.90;;;1.10;;
14118;SDS011;7138;49.246;9.100;2022-09-28T10:21:37;6.15;;;1.17;;
14118;SDS011;7138;49.246;9.100;2022-09-28T10:24:07;4.18;;;1.08;;
14118;SDS011;7138;49.246;9.100;2022-09-28T10:26:43;4.53;;;1.02;;
14118;SDS011;7138;49.246;9.100;2022-09-28T10:29:15;5.15;;;1.00;;
14118;SDS011;7138;49.246;9.100;2022-09-28T10:31:47;5.13;;;1.08;;
14118;SDS011;7138;49.246;9.100;2022-09-28T10:34:15;3.08;;;0.88;;
14118;SDS011;7138;49.246;9.100;2022-09-28T10:36:49;4.97;;;1.55;;
14118;SDS011;7138;49.246;9.100;2022-09-28T10:39:29;3.30;;;0.82;;
14118;SDS011;7138;49.246;9.100;2022-09-28T10:41:58;3.53;;;1.10;;
14118;SDS011;7138;49.246;9.100;2022-09-28T10:44:30;2.00;;;0.77;;
14118;SDS011;7138;49.246;9.100;2022-09-28T10:47:01;5.88;;;2.17;;
14118;SDS011;7138;49.246;9.100;2022-09-28T10:49:36;4.70;;;0.90;;
14118;SDS011;7138;49.246;9.100;2022-09-28T10:52:09;3.85;;;1.00;;
14118;SDS011;7138;49.246;9.100;2022-09-28T10:55:04;3.30;;;0.90;;
14118;SDS011;7138;49.246;9.100;2022-09-28T10:57:51;4.70;;;0.88;;
14118;SDS011;7138;49.246;9.100;2022-09-28T11:00:28;5.15;;;1.13;;
14118;SDS011;7138;49.246;9.100;2022-09-28T11:02:59;4.13;;;1.00;;
14118;SDS011;7138;49.246;9.100;2022-09-28T11:05:26;6.03;;;1.20;;
14118;SDS011;7138;49.246;9.100;2022-09-28T11:07:53;3.78;;;0.90;;
14118;SDS011;7138;49.246;9.100;2022-09-28T11:10:23;3.88;;;0.93;;
14118;SDS011;7138;49.246;9.100;2022-09-28T11:12:52;3.67;;;1.10;;
14118;SDS011;7138;49.246;9.100;2022-09-28T11:15:20;4.40;;;0.95;;
14118;SDS011;7138;49.246;9.100;2022-09-28T11:20:24;5.25;;;1.13;;
14118;SDS011;7138;49.246;9.100;2022-09-28T11:22:59;4.70;;;1.00;;
14118;SDS011;7138;49.246;9.100;2022-09-28T11:25:42;4.18;;;1.00;;
14118;SDS011;7138;49.246;9.100;2022-09-28T11:28:23;4.38;;;0.88;;
14118;SDS011;7138;49.246;9.100;2022-09-28T11:30:56;4.43;;;1.10;;
14118;SDS011;7138;49.246;9.100;2022-09-28T11:33:25;4.53;;;0.70;;
14118;SDS011;7138;49.246;9.100;2022-09-28T11:36:04;5.35;;;1.00;;
14118;SDS011;7138;49.246;9.100;2022-09-28T11:38:52;4.80;;;0.95;;
14118;SDS011;7138;49.246;9.100;2022-09-28T11:41:40;4.05;;;1.00;;
14118;SDS011;7138;49.246;9.100;2022-09-28T11:47:13;5.88;;;1.10;;
14118;SDS011;7138;49.246;9.100;2022-09-28T11:50:11;2.83;;;1.00;;
14118;SDS011;7138;49.246;9.100;2022-09-28T11:52:51;5.97;;;1.20;;
14118;SDS011;7138;49.246;9.100;2022-09-28T11:55:30;4.00;;;1.00;;
14118;SDS011;7138;49.246;9.100;2022-09-28T11:58:04;5.25;;;1.00;;
14118;SDS011;7138;49.246;9.100;2022-09-28T12:00:40;3.13;;;0.90;;
14118;SDS011;7138;49.246;9.100;2022-09-28T12:03:15;4.95;;;1.70;;
14118;SDS011;7138;49.246;9.100;2022-09-28T12:05:50;2.80;;;0.77;;
14118;SDS011;7138;49.246;9.100;2022-09-28T12:08:25;5.75;;;0.90;;
14118;SDS011;7138;49.246;9.100;2022-09-28T12:10:56;4.30;;;1.42;;
14118;SDS011;7138;49.246;9.100;2022-09-28T12:13:28;3.42;;;0.80;;
14118;SDS011;7138;49.246;9.100;2022-09-28T12:16:00;7.15;;;1.20;;
14118;SDS011;7138;49.246;9.100;2022-09-28T12:18:33;4.72;;;1.10;;
14118;SDS011;7138;49.246;9.100;2022-09-28T12:21:13;3.85;;;1.27;;
14118;SDS011;7138;49.246;9.100;2022-09-28T12:23:58;3.92;;;1.10;;
14118;SDS011;7138;49.246;9.100;2022-09-28T12:26:32;4.72;;;1.25;;
14118;SDS011;7138;49.246;9.100;2022-09-28T12:29:09;4.18;;;0.90;;
14118;SDS011;7138;49.246;9.100;2022-09-28T12:31:48;3.58;;;0.70;;
14118;SDS011;7138;49.246;9.100;2022-09-28T12:34:31;2.75;;;0.75;;
14118;SDS011;7138;49.246;9.100;2022-09-28T12:37:10;5.70;;;1.33;;
14118;SDS011;7138;49.246;9.100;2022-09-28T12:40:07;3.03;;;0.82;;
14118;SDS011;7138;49.246;9.100;2022-09-28T12:43:05;3.85;;;1.20;;
14118;SDS011;7138;49.246;9.100;2022-09-28T12:46:18;2.80;;;1.00;;
14118;SDS011;7138;49.246;9.100;2022-09-28T12:49:19;4.95;;;1.05;;
14118;SDS011;7138;49.246;9.100;2022-09-28T12:51:58;3.72;;;1.10;;
14118;SDS011;7138;49.246;9.100;2022-09-28T12:54:48;4.63;;;1.30;;
14118;SDS011;7138;49.246;9.100;2022-09-28T12:57:42;5.78;;;1.27;;
14118;SDS011;7138;49.246;9.100;2022-09-28T13:00:22;4.93;;;1.30;;
14118;SDS011;7138;49.246;9.100;2022-09-28T13:03:03;3.58;;;1.13;;
14118;SDS011;7138;49.246;9.100;2022-09-28T13:06:12;4.70;;;1.23;;
14118;SDS011;7138;49.246;9.100;2022-09-28T13:09:08;5.93;;;1.10;;
14118;SDS011;7138;49.246;9.100;2022-09-28T13:11:48;3.53;;;1.08;;
14118;SDS011;7138;49.246;9.100;2022-09-28T13:14:44;5.10;;;0.90;;
14118;SDS011;7138;49.246;9.100;2022-09-28T13:17:58;4.78;;;1.35;;
14118;SDS011;7138;49.246;9.100;2022-09-28T13:20:40;3.10;;;0.70;;
14118;SDS011;7138;49.246;9.100;2022-09-28T13:23:24;2.85;;;0.70;;
14118;SDS011;7138;49.246;9.100;2022-09-28T13:25:56;2.28;;;0.80;;
14118;SDS011;7138;49.246;9.100;2022-09-28T13:28:32;3.90;;;1.00;;
14118;SDS011;7138;49.246;9.100;2022-09-28T13:31:01;5.47;;;1.20;;
14118;SDS011;7138;49.246;9.100;2022-09-28T13:33:29;4.78;;;0.90;;
14118;SDS011;7138;49.246;9.100;2022-09-28T13:36:00;2.47;;;0.80;;
14118;SDS011;7138;49.246;9.100;2022-09-28T13:38:43;3.58;;;0.82;;
14118;SDS011;7138;49.246;9.100;2022-09-28T13:41:24;3.97;;;0.95;;
14118;SDS011;7138;49.246;9.100;2022-09-28T13:44:10;3.17;;;0.70;;
14118;SDS011;7138;49.246;9.100;2022-09-28T13:47:21;3.83;;;1.10;;
14118;SDS011;7138;49.246;9.100;2022-09-28T13:50:16;6.15;;;0.90;;
14118;SDS011;7138;49.246;9.100;2022-09-28T13:52:55;3.22;;;1.00;;
14118;SDS011;7138;49.246;9.100;2022-09-28T13:55:36;4.65;;;1.15;;
14118;SDS011;7138;49.246;9.100;2022-09-28T13:58:20;3.85;;;0.88;;
14118;SDS011;7138;49.246;9.100;2022-09-28T14:00:55;6.95;;;0.80;;
14118;SDS011;7138;49.246;9.100;2022-09-28T14:03:41;3.92;;;1.05;;
14118;SDS011;7138;49.246;9.100;2022-09-28T14:06:22;3.83;;;0.80;;
14118;SDS011;7138;49.246;9.100;2022-09-28T14:09:08;5.38;;;1.08;;
14118;SDS011;7138;49.246;9.100;2022-09-28T14:11:54;2.83;;;0.67;;
14118;SDS011;7138;49.246;9.100;2022-09-28T14:14:44;3.58;;;0.75;;
14118;SDS011;7138;49.246;9.100;2022-09-28T14:20:38;5.47;;;1.35;;
14118;SDS011;7138;49.246;9.100;2022-09-28T14:26:32;3.92;;;0.90;;
14118;SDS011;7138;49.246;9.100;2022-09-28T14:29:49;3.40;;;0.80;;
14118;SDS011;7138;49.246;9.100;2022-09-28T14:32:30;5.00;;;0.90;;
14118;SDS011;7138;49.246;9.100;2022-09-28T14:35:03;2.83;;;0.80;;
14118;SDS011;7138;49.246;9.100;2022-09-28T14:37:32;3.47;;;0.80;;
14118;SDS011;7138;49.246;9.100;2022-09-28T14:40:21;2.45;;;0.75;;
14118;SDS011;7138;49.246;9.100;2022-09-28T14:46:28;3.75;;;0.98;;
14118;SDS011;7138;49.246;9.100;2022-09-28T14:48:58;3.63;;;0.85;;
14118;SDS011;7138;49.246;9.100;2022-09-28T14:54:28;4.82;;;1.42;;
14118;SDS011;7138;49.246;9.100;2022-09-28T14:57:13;3.67;;;1.20;;
14118;SDS011;7138;49.246;9.100;2022-09-28T14:59:44;4.68;;;1.50;;
14118;SDS011;7138;49.246;9.100;2022-09-28T15:02:16;6.30;;;1.38;;
14118;SDS011;7138;49.246;9.100;2022-09-28T15:04:54;4.55;;;1.23;;
14118;SDS011;7138;49.246;9.100;2022-09-28T15:07:45;4.10;;;1.30;;
14118;SDS011;7138;49.246;9.100;2022-09-28T15:10:20;6.07;;;1.33;;
14118;SDS011;7138;49.246;9.100;2022-09-28T15:12:52;8.82;;;1.83;;
14118;SDS011;7138;49.246;9.100;2022-09-28T15:15:23;4.53;;;1.17;;
14118;SDS011;7138;49.246;9.100;2022-09-28T15:17:57;5.53;;;1.30;;
14118;SDS011;7138;49.246;9.100;2022-09-28T15:20:45;2.80;;;0.80;;
14118;SDS011;7138;49.246;9.100;2022-09-28T15:23:24;5.65;;;1.10;;
14118;SDS011;7138;49.246;9.100;2022-09-28T15:25:58;4.25;;;1.30;;
14118;SDS011;7138;49.246;9.100;2022-09-28T15:28:24;5.60;;;1.63;;
14118;SDS011;7138;49.246;9.100;2022-09-28T15:30:50;4.90;;;1.10;;
14118;SDS011;7138;49.246;9.100;2022-09-28T15:33:24;5.03;;;1.05;;
14118;SDS011;7138;49.246;9.100;2022-09-28T15:36:12;2.38;;;0.80;;
14118;SDS011;7138;49.246;9.100;2022-09-28T15:38:45;3.72;;;0.93;;
14118;SDS011;7138;49.246;9.100;2022-09-28T15:41:20;4.05;;;1.30;;
14118;SDS011;7138;49.246;9.100;2022-09-28T15:44:01;4.95;;;1.20;;
14118;SDS011;7138;49.246;9.100;2022-09-28T15:46:49;5.88;;;1.30;;
14118;SDS011;7138;49.246;9.100;2022-09-28T15:49:31;5.07;;;1.38;;
14118;SDS011;7138;49.246;9.100;2022-09-28T15:52:05;5.90;;;1.30;;
14118;SDS011;7138;49.246;9.100;2022-09-28T15:54:47;3.60;;;1.02;;
14118;SDS011;7138;49.246;9.100;2022-09-28T15:57:27;3.25;;;1.10;;
14118;SDS011;7138;49.246;9.100;2022-09-28T15:59:57;5.10;;;1.15;;
14118;SDS011;7138;49.246;9.100;2022-09-28T16:02:25;5.80;;;1.50;;
14118;SDS011;7138;49.246;9.100;2022-09-28T16:04:52;3.42;;;1.00;;